Time;durP1;ratioP1;P1;durP2;ratioP2;P2;SDS_P1;SDS_P2;PMS_P1;PMS_P2;Temp;Humidity;BMP_temperature;BMP_pressure;BME280_temperature;BME280_humidity;BME280_pressure;Samples;Min_cycle;Max_cycle;Signal;HPM_P1;HPM_P2
2023/12/19 00:00:28;;;;;;;38.22;14.13;;;7.60;99.90;;;;;;5033306;28;20030;-53
2023/12/19 00:02:54;;;;;;;45.78;16.23;;;7.60;99.90;;;;;;5033552;28;20061;-42
2023/12/19 00:05:19;;;;;;;35.85;14.25;;;7.60;99.90;;;;;;5017127;28;20061;-46
2023/12/19 00:07:46;;;;;;;40.85;15.70;;;7.60;99.90;;;;;;5030150;28;20021;-43
2023/12/19 00:10:11;;;;;;;44.42;15.57;;;7.60;99.90;;;;;;5034070;28;20165;-42
2023/12/19 00:12:37;;;;;;;40.13;15.05;;;7.60;99.90;;;;;;5033656;28;20387;-40
2023/12/19 00:15:07;;;;;;;32.75;14.52;;;7.70;99.90;;;;;;5033615;28;20025;-44
2023/12/19 00:17:33;;;;;;;44.92;14.90;;;7.60;99.90;;;;;;5031701;28;20474;-42
2023/12/19 00:19:58;;;;;;;35.28;15.40;;;7.60;99.90;;;;;;5029366;28;20028;-42
2023/12/19 00:22:24;;;;;;;40.42;15.48;;;7.60;99.90;;;;;;5033686;28;20120;-40
2023/12/19 00:24:53;;;;;;;49.17;15.38;;;7.60;99.90;;;;;;5021272;28;20444;-43
2023/12/19 00:27:19;;;;;;;43.58;16.00;;;7.60;99.90;;;;;;5030241;28;20025;-43
2023/12/19 00:29:44;;;;;;;41.50;15.63;;;7.60;99.90;;;;;;5032821;28;20029;-40
2023/12/19 00:32:10;;;;;;;43.22;14.60;;;7.60;99.90;;;;;;5031280;28;20037;-42
2023/12/19 00:34:36;;;;;;;47.65;16.42;;;7.60;99.90;;;;;;5033389;28;20026;-41
2023/12/19 00:37:01;;;;;;;38.63;15.32;;;7.60;99.90;;;;;;5033439;28;20058;-42
2023/12/19 00:39:27;;;;;;;38.10;15.30;;;7.60;99.90;;;;;;5033343;28;20028;-41
2023/12/19 00:41:53;;;;;;;47.88;17.05;;;7.70;99.90;;;;;;5033593;28;20482;-48
2023/12/19 00:44:19;;;;;;;50.83;14.95;;;7.70;99.90;;;;;;5030027;28;20013;-39
2023/12/19 00:46:45;;;;;;;50.50;16.42;;;7.70;99.90;;;;;;5032435;28;20478;-40
2023/12/19 00:49:10;;;;;;;46.55;16.30;;;7.70;99.90;;;;;;5020862;28;20030;-44
2023/12/19 00:51:36;;;;;;;42.67;15.43;;;7.70;99.90;;;;;;5033205;28;20029;-42
2023/12/19 00:54:02;;;;;;;38.92;15.45;;;7.80;99.90;;;;;;5032931;28;20104;-43
2023/12/19 00:56:29;;;;;;;40.47;16.58;;;7.80;99.90;;;;;;5032880;28;20105;-51
2023/12/19 00:58:55;;;;;;;47.60;16.38;;;7.70;99.90;;;;;;5032087;28;20026;-42
2023/12/19 01:01:24;;;;;;;45.35;17.23;;;7.80;99.90;;;;;;5032006;28;20075;-46
2023/12/19 01:03:50;;;;;;;40.90;15.82;;;7.80;99.90;;;;;;5031286;28;20371;-39
2023/12/19 01:06:16;;;;;;;48.05;17.63;;;7.80;99.90;;;;;;5032119;28;20549;-44
2023/12/19 01:08:42;;;;;;;45.45;16.17;;;7.80;99.90;;;;;;5030473;28;20104;-40
2023/12/19 01:11:09;;;;;;;59.08;17.27;;;7.90;99.90;;;;;;5020516;28;20405;-44
2023/12/19 01:13:38;;;;;;;45.70;17.17;;;7.80;99.90;;;;;;5027533;28;20038;-40
2023/12/19 01:16:04;;;;;;;41.47;16.13;;;7.80;99.90;;;;;;5027444;28;20026;-43
2023/12/19 01:18:31;;;;;;;48.63;16.73;;;7.80;99.90;;;;;;5030710;28;20581;-40
2023/12/19 01:20:56;;;;;;;44.75;17.88;;;7.80;99.90;;;;;;5029426;28;20025;-42
2023/12/19 01:23:23;;;;;;;41.53;17.15;;;7.90;99.90;;;;;;5031884;28;20498;-44
2023/12/19 01:25:48;;;;;;;47.85;18.00;;;7.90;99.90;;;;;;5031025;28;20492;-41
2023/12/19 01:28:14;;;;;;;48.35;17.10;;;7.90;99.90;;;;;;5031006;28;20064;-40
2023/12/19 01:30:41;;;;;;;51.03;16.23;;;7.80;99.90;;;;;;5022726;28;20021;-42
2023/12/19 01:33:09;;;;;;;46.60;16.95;;;7.80;99.90;;;;;;5032076;28;20044;-40
2023/12/19 01:35:36;;;;;;;51.60;16.13;;;7.90;99.90;;;;;;5030553;28;20477;-43
2023/12/19 01:38:01;;;;;;;46.63;16.95;;;7.90;99.90;;;;;;5032190;28;20029;-41
2023/12/19 01:40:34;;;;;;;47.30;17.08;;;7.90;99.90;;;;;;5032571;28;20140;-42
2023/12/19 01:43:00;;;;;;;39.33;16.23;;;7.90;99.90;;;;;;5032357;28;20400;-41
2023/12/19 01:45:28;;;;;;;53.53;17.50;;;7.90;99.90;;;;;;5030413;28;20036;-42
2023/12/19 01:47:57;;;;;;;29.77;12.07;;;7.90;99.90;;;;;;5031477;28;20037;-42
2023/12/19 01:50:23;;;;;;;44.88;17.42;;;7.90;99.90;;;;;;5031641;28;20092;-54
2023/12/19 01:52:53;;;;;;;48.17;17.17;;;7.90;99.90;;;;;;5032209;28;20470;-41
2023/12/19 01:55:20;;;;;;;39.38;15.80;;;7.90;99.90;;;;;;5032616;28;20110;-44
2023/12/19 01:57:47;;;;;;;38.58;15.55;;;7.90;99.90;;;;;;5032043;28;20024;-41
2023/12/19 02:00:13;;;;;;;43.47;15.32;;;7.90;99.90;;;;;;5025404;28;20474;-41
2023/12/19 02:02:40;;;;;;;38.38;15.88;;;7.90;99.90;;;;;;5023069;28;20481;-51
2023/12/19 02:05:07;;;;;;;40.00;16.77;;;7.90;99.90;;;;;;5031320;28;20037;-46
2023/12/19 02:07:33;;;;;;;38.07;12.70;;;7.90;99.90;;;;;;5029094;28;20079;-44
2023/12/19 02:10:00;;;;;;;36.28;15.10;;;7.90;99.90;;;;;;5031943;28;20025;-46
2023/12/19 02:12:26;;;;;;;39.63;14.48;;;7.90;99.90;;;;;;5067278;28;20406;-45
2023/12/19 02:14:52;;;;;;;44.22;16.95;;;7.90;99.90;;;;;;5036076;28;20508;-43
2023/12/19 02:17:18;;;;;;;42.03;15.63;;;7.80;99.90;;;;;;5034995;28;20501;-47
2023/12/19 02:19:48;;;;;;;40.55;15.82;;;7.80;99.90;;;;;;5034293;28;20382;-41
2023/12/19 02:22:14;;;;;;;37.65;15.40;;;7.90;99.90;;;;;;5023345;28;20535;-44
2023/12/19 02:24:41;;;;;;;47.40;16.38;;;7.90;99.90;;;;;;5035677;28;20032;-40
2023/12/19 02:27:08;;;;;;;41.35;15.38;;;7.90;99.90;;;;;;5034459;28;20025;-45
2023/12/19 02:29:34;;;;;;;34.80;13.98;;;7.90;99.90;;;;;;5035564;28;20103;-41
2023/12/19 02:32:00;;;;;;;39.85;14.20;;;7.90;99.90;;;;;;5035439;28;20482;-42
2023/12/19 02:34:26;;;;;;;33.90;13.95;;;7.90;99.90;;;;;;5035684;28;20028;-44
2023/12/19 02:36:52;;;;;;;42.28;14.80;;;7.90;99.90;;;;;;5035337;28;20478;-46
2023/12/19 02:39:18;;;;;;;33.50;13.95;;;7.90;99.90;;;;;;5035643;28;20042;-52
2023/12/19 02:41:44;;;;;;;34.20;14.30;;;7.90;99.90;;;;;;5035038;28;20033;-41
2023/12/19 02:44:10;;;;;;;42.42;14.18;;;7.90;99.90;;;;;;5033908;28;20500;-43
2023/12/19 02:46:35;;;;;;;43.83;14.65;;;7.90;99.90;;;;;;5035570;28;20386;-42
2023/12/19 02:49:02;;;;;;;34.20;14.27;;;7.90;99.90;;;;;;5034810;28;20041;-41
2023/12/19 02:51:29;;;;;;;45.17;14.45;;;7.90;99.90;;;;;;5033673;28;20032;-42
2023/12/19 02:53:56;;;;;;;38.27;13.53;;;7.90;99.90;;;;;;5035158;28;20111;-42
2023/12/19 02:56:22;;;;;;;38.88;13.68;;;7.90;99.90;;;;;;5035071;28;20025;-40
2023/12/19 02:58:47;;;;;;;40.03;15.80;;;7.90;99.90;;;;;;5034569;28;20152;-41
2023/12/19 03:01:13;;;;;;;37.22;14.05;;;7.90;99.90;;;;;;5034806;28;20032;-61
2023/12/19 03:03:43;;;;;;;35.55;14.05;;;7.90;99.90;;;;;;5034849;28;20378;-42
2023/12/19 03:06:09;;;;;;;39.97;14.07;;;7.90;99.90;;;;;;5035365;28;20025;-44
2023/12/19 03:08:35;;;;;;;38.70;13.65;;;7.80;99.90;;;;;;5034703;28;20478;-50
2023/12/19 03:11:01;;;;;;;39.10;15.85;;;7.90;99.90;;;;;;5034377;28;20441;-42
2023/12/19 03:13:27;;;;;;;45.25;15.73;;;7.90;99.90;;;;;;5033891;28;20096;-44
2023/12/19 03:15:53;;;;;;;42.45;14.35;;;7.90;99.90;;;;;;5034962;28;20079;-41
2023/12/19 03:18:25;;;;;;;32.30;13.90;;;7.90;99.90;;;;;;5034738;28;20064;-43
2023/12/19 03:20:57;;;;;;;42.67;15.60;;;8.00;99.90;;;;;;5034210;28;20025;-40
2023/12/19 03:23:23;;;;;;;37.92;16.90;;;8.00;99.90;;;;;;5033101;28;20482;-44
2023/12/19 03:25:49;;;;;;;32.35;14.23;;;7.90;99.90;;;;;;5033053;28;20029;-42
2023/12/19 03:28:14;;;;;;;36.58;14.63;;;7.90;99.90;;;;;;5034478;28;20433;-40
2023/12/19 03:30:40;;;;;;;34.17;14.90;;;8.00;99.90;;;;;;5034975;28;20048;-41
2023/12/19 03:33:06;;;;;;;46.30;14.52;;;8.00;99.90;;;;;;5034326;28;20037;-40
2023/12/19 03:35:32;;;;;;;35.67;13.80;;;8.00;99.90;;;;;;5033806;28;20021;-41
2023/12/19 03:37:58;;;;;;;38.42;15.65;;;8.00;99.90;;;;;;5034065;28;20037;-40
2023/12/19 03:40:24;;;;;;;36.15;13.35;;;8.00;99.90;;;;;;5066375;28;20378;-41
2023/12/19 03:42:49;;;;;;;43.85;14.10;;;8.00;99.90;;;;;;5034139;28;20030;-41
2023/12/19 03:45:15;;;;;;;41.90;14.18;;;8.00;99.90;;;;;;5034136;28;20030;-40
2023/12/19 03:47:41;;;;;;;32.85;13.60;;;8.00;99.90;;;;;;5034473;28;20524;-41
2023/12/19 03:50:08;;;;;;;32.22;13.52;;;8.10;99.90;;;;;;5034306;28;20064;-40
2023/12/19 03:52:34;;;;;;;34.40;13.45;;;8.10;99.90;;;;;;5033056;28;20429;-42
2023/12/19 03:55:00;;;;;;;28.13;11.98;;;8.10;99.90;;;;;;5034233;28;20493;-40
2023/12/19 03:57:26;;;;;;;28.67;12.25;;;8.20;99.90;;;;;;5065058;28;20025;-44
2023/12/19 03:59:53;;;;;;;32.65;12.82;;;8.20;99.90;;;;;;5033985;28;20025;-40
2023/12/19 04:02:19;;;;;;;32.85;13.25;;;8.20;99.90;;;;;;5033609;28;20034;-61
2023/12/19 04:04:45;;;;;;;31.55;13.07;;;8.20;99.90;;;;;;5033153;28;20028;-40
2023/12/19 04:07:10;;;;;;;29.90;11.88;;;8.20;99.90;;;;;;5032890;28;20061;-40
2023/12/19 04:09:36;;;;;;;27.50;12.10;;;8.20;99.90;;;;;;5033257;28;20520;-68
2023/12/19 04:12:02;;;;;;;28.17;12.32;;;8.30;99.90;;;;;;5033145;28;20121;-39
2023/12/19 04:14:29;;;;;;;35.92;12.77;;;8.30;99.90;;;;;;5021937;28;20030;-40
2023/12/19 04:16:55;;;;;;;31.67;12.85;;;8.30;99.90;;;;;;5014114;28;20514;-39
2023/12/19 04:19:21;;;;;;;31.92;13.50;;;8.30;99.90;;;;;;5023684;28;20018;-40
2023/12/19 04:21:48;;;;;;;27.73;13.05;;;8.30;99.90;;;;;;5032988;28;20036;-41
2023/12/19 04:24:14;;;;;;;33.83;13.10;;;8.30;99.90;;;;;;5032929;28;20083;-40
2023/12/19 04:26:41;;;;;;;30.95;12.90;;;8.30;99.90;;;;;;5031755;28;20498;-41
2023/12/19 04:29:08;;;;;;;37.80;13.40;;;8.30;99.90;;;;;;5032904;28;20045;-43
2023/12/19 04:31:33;;;;;;;30.60;11.70;;;8.40;99.90;;;;;;5031830;28;20090;-39
2023/12/19 04:33:59;;;;;;;38.28;13.60;;;8.30;99.90;;;;;;5033001;28;20022;-41
2023/12/19 04:36:25;;;;;;;27.85;12.50;;;8.30;99.90;;;;;;5032625;28;20025;-39
2023/12/19 04:38:51;;;;;;;32.15;13.20;;;8.30;99.90;;;;;;5032956;28;20092;-41
2023/12/19 04:41:17;;;;;;;32.88;12.45;;;8.40;99.90;;;;;;5031850;28;20379;-40
2023/12/19 04:43:42;;;;;;;32.03;12.20;;;8.30;99.90;;;;;;5033309;28;20018;-41
2023/12/19 04:46:08;;;;;;;28.52;13.13;;;8.40;99.90;;;;;;5033029;28;20017;-40
2023/12/19 04:48:34;;;;;;;33.58;12.98;;;8.40;99.90;;;;;;5031984;28;20394;-38
2023/12/19 04:51:00;;;;;;;25.17;12.48;;;8.40;99.90;;;;;;5032727;28;20110;-42
2023/12/19 04:53:26;;;;;;;33.58;12.23;;;8.40;99.90;;;;;;5032916;28;20502;-48
2023/12/19 04:55:51;;;;;;;35.13;12.68;;;8.40;99.90;;;;;;5032906;28;20163;-39
2023/12/19 04:58:18;;;;;;;28.70;12.18;;;8.50;99.90;;;;;;5032885;28;20490;-40
2023/12/19 05:00:43;;;;;;;24.98;11.70;;;8.40;99.90;;;;;;5033118;28;20030;-41
2023/12/19 05:03:09;;;;;;;32.75;12.00;;;8.40;99.90;;;;;;5032331;28;20359;-42
2023/12/19 05:05:35;;;;;;;30.95;12.57;;;8.40;99.90;;;;;;5032308;28;20486;-41
2023/12/19 05:08:01;;;;;;;27.73;12.15;;;8.30;99.90;;;;;;5031821;28;20036;-41
2023/12/19 05:10:26;;;;;;;25.92;11.35;;;8.40;99.90;;;;;;5032613;28;20053;-43
2023/12/19 05:12:52;;;;;;;24.83;12.15;;;8.40;99.90;;;;;;5032984;28;20095;-39
2023/12/19 05:15:17;;;;;;;22.58;11.65;;;8.40;99.90;;;;;;5031922;28;20071;-40
2023/12/19 05:17:43;;;;;;;28.77;11.32;;;8.30;99.90;;;;;;5032705;28;20471;-42
2023/12/19 05:20:09;;;;;;;21.85;10.52;;;8.30;99.90;;;;;;5031675;28;20096;-46
2023/12/19 05:22:35;;;;;;;20.80;11.35;;;8.40;99.90;;;;;;5032176;28;20040;-43
2023/12/19 05:25:01;;;;;;;22.00;11.25;;;8.40;99.90;;;;;;5032788;28;20474;-44
2023/12/19 05:27:26;;;;;;;29.48;11.73;;;8.40;99.90;;;;;;5032235;28;20025;-47
2023/12/19 05:29:52;;;;;;;27.70;11.90;;;8.30;99.90;;;;;;5029791;28;20037;-43
2023/12/19 05:32:17;;;;;;;34.17;13.07;;;8.40;99.90;;;;;;5030325;28;20109;-44
2023/12/19 05:34:43;;;;;;;27.75;11.20;;;8.40;99.90;;;;;;5032675;28;20030;-44
2023/12/19 05:37:09;;;;;;;20.80;10.88;;;8.30;99.90;;;;;;5031357;28;20032;-46
2023/12/19 05:39:35;;;;;;;23.90;11.25;;;8.40;99.90;;;;;;5032641;28;20022;-41
2023/12/19 05:42:01;;;;;;;22.23;10.95;;;8.40;99.90;;;;;;5032291;28;20079;-40
2023/12/19 05:44:27;;;;;;;30.75;12.57;;;8.50;99.90;;;;;;5034280;28;20029;-46
2023/12/19 05:46:53;;;;;;;25.42;10.93;;;8.40;99.90;;;;;;5035387;28;20030;-41
2023/12/19 05:49:19;;;;;;;21.45;11.15;;;8.40;99.90;;;;;;5036209;28;20025;-47
2023/12/19 05:51:45;;;;;;;26.25;11.88;;;8.50;99.90;;;;;;5036183;28;20029;-46
2023/12/19 05:54:10;;;;;;;26.52;12.40;;;8.50;99.90;;;;;;5036491;28;20033;-43
2023/12/19 05:56:36;;;;;;;21.70;10.65;;;8.50;99.90;;;;;;5035718;28;20033;-46
2023/12/19 05:59:02;;;;;;;20.45;10.13;;;8.50;99.90;;;;;;5035123;28;20036;-43
2023/12/19 06:01:27;;;;;;;23.95;10.65;;;8.50;99.90;;;;;;5036007;28;20112;-44
2023/12/19 06:03:54;;;;;;;19.67;10.38;;;8.50;99.90;;;;;;5036288;28;20037;-42
2023/12/19 06:06:20;;;;;;;20.75;9.73;;;8.50;99.90;;;;;;5035951;28;20501;-41
2023/12/19 06:08:45;;;;;;;18.25;8.63;;;8.40;99.90;;;;;;5036231;28;20057;-50
2023/12/19 06:11:12;;;;;;;16.23;9.10;;;8.50;99.90;;;;;;5035393;28;20041;-42
2023/12/19 06:13:38;;;;;;;17.33;9.32;;;8.50;99.90;;;;;;5036160;28;20521;-47
2023/12/19 06:16:05;;;;;;;19.45;9.23;;;8.40;99.90;;;;;;5035770;28;20389;-49
2023/12/19 06:18:31;;;;;;;22.87;9.87;;;8.50;99.90;;;;;;5035889;28;20474;-47
2023/12/19 06:20:57;;;;;;;17.67;9.75;;;8.50;99.90;;;;;;5035746;28;20402;-47
2023/12/19 06:23:23;;;;;;;16.60;9.18;;;8.50;99.90;;;;;;5035880;28;20018;-46
2023/12/19 06:25:48;;;;;;;20.33;9.77;;;8.50;99.90;;;;;;5035720;28;20144;-43
2023/12/19 06:28:16;;;;;;;20.23;10.02;;;8.50;99.90;;;;;;5035872;28;20030;-43
2023/12/19 06:30:41;;;;;;;22.25;10.32;;;8.50;99.90;;;;;;5035486;28;20485;-41
2023/12/19 06:33:07;;;;;;;29.50;11.63;;;8.50;99.90;;;;;;5034901;28;20034;-44
2023/12/19 06:35:33;;;;;;;23.52;10.82;;;8.50;99.90;;;;;;5034171;28;20022;-44
2023/12/19 06:37:58;;;;;;;27.38;11.38;;;8.50;99.90;;;;;;5066774;28;20057;-42
2023/12/19 06:40:24;;;;;;;27.67;11.73;;;8.50;99.90;;;;;;5034965;28;20025;-48
2023/12/19 06:42:50;;;;;;;26.92;11.48;;;8.50;99.90;;;;;;5035603;28;20040;-43
2023/12/19 06:45:16;;;;;;;23.13;11.85;;;8.50;99.90;;;;;;5035560;28;20470;-70
2023/12/19 06:47:42;;;;;;;26.02;11.75;;;8.50;99.90;;;;;;5029792;28;20075;-49
2023/12/19 06:50:08;;;;;;;30.02;12.52;;;8.50;99.90;;;;;;5035281;28;20116;-49
2023/12/19 06:52:34;;;;;;;33.30;12.20;;;8.60;99.90;;;;;;5035100;28;20025;-48
2023/12/19 06:55:00;;;;;;;28.60;12.68;;;8.50;99.90;;;;;;5035210;28;20022;-53
2023/12/19 06:57:27;;;;;;;28.80;13.20;;;8.50;99.90;;;;;;5034172;28;20459;-52
2023/12/19 06:59:52;;;;;;;17.90;8.38;;;8.50;99.90;;;;;;5017468;28;20026;-46
2023/12/19 07:02:18;;;;;;;33.13;12.68;;;8.60;99.90;;;;;;5035140;28;20374;-65
2023/12/19 07:04:44;;;;;;;41.22;14.07;;;8.60;99.90;;;;;;5033768;28;20032;-53
2023/12/19 07:07:09;;;;;;;28.90;12.48;;;8.60;99.90;;;;;;5033651;28;20029;-54
2023/12/19 07:09:37;;;;;;;28.88;13.32;;;8.50;99.90;;;;;;5035038;28;20025;-47
2023/12/19 07:12:03;;;;;;;39.80;13.13;;;8.50;99.90;;;;;;5034537;28;20478;-43
2023/12/19 07:14:29;;;;;;;42.45;13.68;;;8.50;99.90;;;;;;5034659;28;20096;-50
2023/12/19 07:16:54;;;;;;;29.02;12.98;;;8.50;99.90;;;;;;5034964;28;20367;-45
2023/12/19 07:19:21;;;;;;;28.08;13.57;;;8.60;99.90;;;;;;5034469;28;20018;-45
2023/12/19 07:21:48;;;;;;;33.42;13.35;;;8.60;99.90;;;;;;5034466;28;20039;-46
2023/12/19 07:24:14;;;;;;;46.55;14.30;;;8.60;99.90;;;;;;5034694;28;20481;-49
2023/12/19 07:26:40;;;;;;;33.63;13.65;;;8.60;99.90;;;;;;5034561;28;20056;-48
2023/12/19 07:29:08;;;;;;;33.63;13.25;;;8.60;99.90;;;;;;5020038;28;20025;-51
2023/12/19 07:31:34;;;;;;;35.13;12.77;;;8.70;99.90;;;;;;5026112;28;20520;-47
2023/12/19 07:34:01;;;;;;;37.33;14.07;;;8.70;99.90;;;;;;5034298;28;20049;-47
2023/12/19 07:36:28;;;;;;;28.20;14.23;;;8.70;99.90;;;;;;5033048;28;20453;-49
2023/12/19 07:38:53;;;;;;;44.15;14.50;;;8.60;99.90;;;;;;5034364;28;20477;-51
2023/12/19 07:41:22;;;;;;;34.08;14.88;;;8.60;99.90;;;;;;5066601;28;20017;-44
2023/12/19 07:43:48;;;;;;;27.92;13.65;;;8.70;99.90;;;;;;5034485;28;20053;-47
2023/12/19 07:46:14;;;;;;;34.33;14.02;;;8.70;99.90;;;;;;5034155;28;20033;-52
2023/12/19 07:48:40;;;;;;;38.83;14.57;;;8.60;99.90;;;;;;5034387;28;20021;-46
2023/12/19 07:51:07;;;;;;;38.60;14.38;;;8.60;99.90;;;;;;5034018;28;20155;-52
2023/12/19 07:53:34;;;;;;;33.07;14.03;;;8.60;99.90;;;;;;5033513;28;20030;-46
2023/12/19 07:56:05;;;;;;;35.80;14.23;;;8.70;99.90;;;;;;5034287;28;20466;-47
2023/12/19 07:58:31;;;;;;;29.25;12.07;;;8.70;99.90;;;;;;5033314;28;20024;-48
2023/12/19 08:00:57;;;;;;;32.25;14.23;;;8.70;99.90;;;;;;5032518;28;20395;-49
2023/12/19 08:03:28;;;;;;;32.80;14.02;;;8.70;99.90;;;;;;5032794;28;20018;-42
2023/12/19 08:05:56;;;;;;;28.10;13.68;;;8.60;99.90;;;;;;5032356;28;20520;-49
2023/12/19 08:08:23;;;;;;;29.63;13.85;;;8.60;99.90;;;;;;5033600;28;20109;-45
2023/12/19 08:10:49;;;;;;;36.08;13.00;;;8.60;99.90;;;;;;5033373;28;20482;-43
2023/12/19 08:13:16;;;;;;;36.95;12.65;;;8.60;99.90;;;;;;5033581;28;20072;-45
2023/12/19 08:15:42;;;;;;;28.43;13.30;;;8.60;99.90;;;;;;5033740;28;20378;-45
2023/12/19 08:18:09;;;;;;;28.58;13.70;;;8.60;99.90;;;;;;5033682;28;20033;-49
2023/12/19 08:20:35;;;;;;;33.85;13.18;;;8.60;99.90;;;;;;5033544;28;20025;-44
2023/12/19 08:23:01;;;;;;;34.30;12.57;;;8.60;99.90;;;;;;5031850;28;20847;-50
2023/12/19 08:25:28;;;;;;;25.35;11.90;;;8.60;99.90;;;;;;5032935;28;20041;-48
2023/12/19 08:27:53;;;;;;;28.88;12.40;;;8.70;99.90;;;;;;5033298;28;20038;-43
2023/12/19 08:30:20;;;;;;;35.03;13.50;;;8.60;99.90;;;;;;5033159;28;20187;-43
2023/12/19 08:32:45;;;;;;;27.55;12.43;;;8.70;99.90;;;;;;5031818;28;20520;-46
2023/12/19 08:35:11;;;;;;;26.25;12.18;;;8.70;99.90;;;;;;5032614;28;20057;-54
2023/12/19 08:37:37;;;;;;;31.90;12.10;;;8.60;99.90;;;;;;5033183;28;20060;-45
2023/12/19 08:40:03;;;;;;;28.95;12.40;;;8.60;99.90;;;;;;5033266;28;20033;-47
2023/12/19 08:42:30;;;;;;;27.13;11.75;;;8.60;99.90;;;;;;5031884;28;20390;-49
2023/12/19 08:44:56;;;;;;;26.95;11.77;;;8.60;99.90;;;;;;5032920;28;20075;-39
2023/12/19 08:47:25;;;;;;;30.08;11.68;;;8.60;99.90;;;;;;5031669;28;20374;-45
2023/12/19 08:49:54;;;;;;;26.27;11.02;;;8.60;99.90;;;;;;5032685;28;20030;-46
2023/12/19 08:52:21;;;;;;;28.38;12.38;;;8.60;99.90;;;;;;5031448;28;20167;-47
2023/12/19 08:54:47;;;;;;;29.05;11.93;;;8.70;99.90;;;;;;5033138;28;20026;-46
2023/12/19 08:57:13;;;;;;;23.70;11.77;;;8.70;99.90;;;;;;5032264;28;20390;-46
2023/12/19 08:59:40;;;;;;;27.27;12.40;;;8.70;99.90;;;;;;5033028;28;20482;-42
2023/12/19 09:02:06;;;;;;;30.65;12.20;;;8.70;99.90;;;;;;5033542;28;20025;-44
2023/12/19 09:04:32;;;;;;;25.77;11.55;;;8.70;99.90;;;;;;5033008;28;20489;-44
2023/12/19 09:06:58;;;;;;;26.88;11.88;;;8.70;99.90;;;;;;5032760;28;20490;-43
2023/12/19 09:09:24;;;;;;;21.05;11.38;;;8.70;99.90;;;;;;5032678;28;20083;-47
2023/12/19 09:11:50;;;;;;;30.42;12.32;;;8.70;99.90;;;;;;5032248;28;20087;-43
2023/12/19 09:14:16;;;;;;;22.70;10.95;;;8.70;99.90;;;;;;5032658;28;20022;-44
2023/12/19 09:16:43;;;;;;;28.08;11.68;;;8.60;99.90;;;;;;5032612;28;20508;-43
2023/12/19 09:19:09;;;;;;;19.67;10.75;;;8.70;99.90;;;;;;5031259;28;20500;-39
2023/12/19 09:21:34;;;;;;;22.73;9.98;;;8.70;99.90;;;;;;5032539;28;20026;-62
2023/12/19 09:24:00;;;;;;;21.25;10.32;;;8.70;99.90;;;;;;5032332;28;20033;-45
2023/12/19 09:26:27;;;;;;;26.30;9.80;;;8.70;99.90;;;;;;5032278;28;20489;-41
2023/12/19 09:28:55;;;;;;;24.85;10.68;;;8.70;99.90;;;;;;5030889;28;20436;-42
2023/12/19 09:31:21;;;;;;;19.02;9.27;;;8.70;99.90;;;;;;5032097;28;20033;-43
2023/12/19 09:33:47;;;;;;;22.60;9.30;;;8.70;99.90;;;;;;5032629;28;20029;-40
2023/12/19 09:36:24;;;;;;;20.27;9.25;;;8.70;99.90;;;;;;5032425;28;20021;-46
2023/12/19 09:38:50;;;;;;;20.63;9.48;;;8.70;99.90;;;;;;5032523;28;20478;-43
2023/12/19 09:41:17;;;;;;;20.95;9.48;;;8.70;99.90;;;;;;5032151;28;20545;-40
2023/12/19 09:43:43;;;;;;;22.60;9.18;;;8.70;99.90;;;;;;5032319;28;20082;-44
2023/12/19 09:46:10;;;;;;;20.13;8.77;;;8.70;99.90;;;;;;5032590;28;20017;-42
2023/12/19 09:48:37;;;;;;;24.42;9.10;;;8.70;99.90;;;;;;5032374;28;20093;-40
2023/12/19 09:51:04;;;;;;;21.10;9.57;;;8.80;99.90;;;;;;5032561;28;20026;-41
2023/12/19 09:53:34;;;;;;;21.98;9.38;;;8.80;99.90;;;;;;5031658;28;20033;-45
2023/12/19 09:56:01;;;;;;;22.25;9.80;;;8.80;99.90;;;;;;5032543;28;20565;-59
2023/12/19 09:58:29;;;;;;;21.27;9.32;;;8.80;99.90;;;;;;5032260;28;20524;-41
2023/12/19 10:00:58;;;;;;;;;;;8.80;99.90;;;;;;5032366;28;20547;-43
2023/12/19 10:03:24;;;;;;;18.80;8.30;;;8.80;99.90;;;;;;5032312;28;19913;-42
2023/12/19 10:05:49;;;;;;;14.38;8.68;;;8.80;99.90;;;;;;5032435;28;20504;-44
2023/12/19 10:08:15;;;;;;;22.35;9.80;;;8.90;99.90;;;;;;5032028;28;20030;-40
2023/12/19 10:10:54;;;;;;;14.23;8.40;;;8.90;99.90;;;;;;5032194;28;20439;-44
2023/12/19 10:13:30;;;;;;;19.02;9.68;;;8.90;99.90;;;;;;5032296;28;20034;-41
2023/12/19 10:16:06;;;;;;;20.80;8.45;;;8.90;99.90;;;;;;5031831;28;20026;-40
2023/12/19 10:18:33;;;;;;;16.52;8.85;;;8.90;99.90;;;;;;5032289;28;20030;-50
2023/12/19 10:21:10;;;;;;;15.95;9.07;;;8.90;99.90;;;;;;5032029;28;20075;-40
2023/12/19 10:23:36;;;;;;;24.88;9.35;;;8.90;99.90;;;;;;5032050;28;20052;-38
2023/12/19 10:26:06;;;;;;;18.58;9.18;;;8.90;99.90;;;;;;5032183;28;20033;-55
2023/12/19 10:28:32;;;;;;;16.67;8.35;;;8.90;99.90;;;;;;5031916;28;20609;-44
2023/12/19 10:31:11;;;;;;;20.10;9.27;;;8.80;99.90;;;;;;5032982;28;20037;-40
2023/12/19 10:33:41;;;;;;;18.58;8.45;;;8.80;99.90;;;;;;5035952;28;20466;-45
2023/12/19 10:36:07;;;;;;;18.02;8.80;;;8.80;99.90;;;;;;5035959;28;20474;-39
2023/12/19 10:38:46;;;;;;;19.52;8.60;;;8.80;99.90;;;;;;5034051;28;20108;-38
2023/12/19 10:41:24;;;;;;;19.70;8.48;;;8.80;99.90;;;;;;5035289;28;20018;-41
2023/12/19 10:43:51;;;;;;;16.38;8.98;;;8.80;99.90;;;;;;5035651;28;20022;-40
2023/12/19 10:46:18;;;;;;;20.48;8.70;;;8.80;99.90;;;;;;5035805;28;20364;-39
2023/12/19 10:48:46;;;;;;;20.75;9.52;;;8.80;99.90;;;;;;5035511;28;20029;-41
2023/12/19 10:51:17;;;;;;;16.73;8.73;;;8.80;99.90;;;;;;5035198;28;20029;-39
2023/12/19 10:53:58;;;;;;;21.17;8.98;;;8.80;99.90;;;;;;5035384;28;20040;-39
2023/12/19 10:56:27;;;;;;;18.23;9.27;;;8.80;99.90;;;;;;5035402;28;20458;-42
2023/12/19 10:59:01;;;;;;;15.60;8.52;;;8.80;99.90;;;;;;5033638;28;20045;-39
2023/12/19 11:01:32;;;;;;;19.15;8.07;;;8.80;99.90;;;;;;5035340;28;20544;-40
2023/12/19 11:04:02;;;;;;;16.20;8.27;;;8.80;99.90;;;;;;5035448;28;20390;-43
2023/12/19 11:06:34;;;;;;;18.50;8.35;;;8.80;99.90;;;;;;5034905;28;20022;-47
2023/12/19 11:09:05;;;;;;;16.70;8.98;;;8.80;99.90;;;;;;5034776;28;20029;-43
2023/12/19 11:11:37;;;;;;;17.13;8.45;;;8.80;99.90;;;;;;5034892;28;20227;-41
2023/12/19 11:14:04;;;;;;;24.88;8.15;;;8.90;99.90;;;;;;5066921;28;20481;-40
2023/12/19 11:16:41;;;;;;;15.77;7.60;;;8.80;99.90;;;;;;5033670;28;20018;-40
2023/12/19 11:19:21;;;;;;;20.85;7.82;;;8.90;99.90;;;;;;5035026;28;20037;-41
2023/12/19 11:22:26;;;;;;;11.10;6.95;;;8.90;99.90;;;;;;5033473;28;20386;-43
2023/12/19 11:25:02;;;;;;;13.60;6.93;;;8.90;99.90;;;;;;5013375;28;20046;-43
2023/12/19 11:27:39;;;;;;;16.83;7.72;;;8.90;99.90;;;;;;5015045;28;20518;-39
2023/12/19 11:30:05;;;;;;;14.30;8.10;;;8.90;99.90;;;;;;5024170;28;20462;-39
2023/12/19 11:32:33;;;;;;;14.00;8.35;;;8.80;99.90;;;;;;5034614;28;20462;-44
2023/12/19 11:35:05;;;;;;;;;;;8.90;99.90;;;;;;5033564;28;20037;-40
2023/12/19 11:37:31;;;;;;;13.10;6.95;;;8.90;99.90;;;;;;5034327;28;19913;-39
2023/12/19 11:39:56;;;;;;;12.75;6.43;;;8.90;99.90;;;;;;5034363;28;20014;-40
2023/12/19 11:42:37;;;;;;;15.80;6.38;;;8.90;99.90;;;;;;5034152;28;20034;-40
2023/12/19 11:45:18;;;;;;;14.43;6.65;;;8.90;99.90;;;;;;5034396;28;20036;-47
2023/12/19 11:47:45;;;;;;;10.63;5.93;;;8.90;99.90;;;;;;5034078;28;20022;-43
2023/12/19 11:50:11;;;;;;;10.10;6.55;;;8.90;99.90;;;;;;5034339;28;20389;-41
2023/12/19 11:52:37;;;;;;;9.95;6.20;;;8.90;99.90;;;;;;5033805;28;20021;-40
2023/12/19 11:55:05;;;;;;;11.85;6.68;;;9.00;99.90;;;;;;5033327;28;20521;-42
2023/12/19 11:57:31;;;;;;;11.68;5.72;;;9.00;99.90;;;;;;5033707;28;20033;-39
2023/12/19 12:00:00;;;;;;;11.75;6.30;;;9.00;99.90;;;;;;5033893;28;20033;-41
2023/12/19 12:02:36;;;;;;;9.55;5.68;;;9.00;99.90;;;;;;5034073;28;20025;-38
2023/12/19 12:05:08;;;;;;;12.75;6.57;;;9.00;99.90;;;;;;5034097;28;20513;-45
2023/12/19 12:07:41;;;;;;;14.35;6.15;;;9.00;99.90;;;;;;5034044;28;20468;-39
2023/12/19 12:10:09;;;;;;;9.38;6.13;;;9.00;99.90;;;;;;5033792;28;20478;-43
2023/12/19 12:12:35;;;;;;;11.40;6.03;;;9.00;99.90;;;;;;5033628;28;20046;-41
2023/12/19 12:15:05;;;;;;;11.88;6.75;;;9.00;99.90;;;;;;5032632;28;20512;-43
2023/12/19 12:17:33;;;;;;;14.02;6.68;;;9.00;99.90;;;;;;5032285;28;20488;-41
2023/12/19 12:19:59;;;;;;;9.52;5.85;;;9.00;99.90;;;;;;5033778;28;20022;-41
2023/12/19 12:22:25;;;;;;;7.63;5.60;;;9.00;99.90;;;;;;5032274;28;20033;-40
2023/12/19 12:24:53;;;;;;;8.60;6.13;;;9.00;99.90;;;;;;5032909;28;20386;-39
2023/12/19 12:27:20;;;;;;;8.20;5.30;;;9.00;99.90;;;;;;5033875;28;20474;-58
2023/12/19 12:29:46;;;;;;;15.02;5.72;;;9.10;99.90;;;;;;5033139;28;20108;-39
2023/12/19 12:32:12;;;;;;;9.80;5.20;;;9.10;99.90;;;;;;5032156;28;20133;-46
2023/12/19 12:34:38;;;;;;;13.30;5.53;;;9.00;99.90;;;;;;5033336;28;20018;-44
2023/12/19 12:37:04;;;;;;;9.05;4.95;;;9.00;99.90;;;;;;5033730;28;20486;-40
2023/12/19 12:39:30;;;;;;;8.23;5.07;;;9.00;99.90;;;;;;5033131;28;20021;-38